createdAt,value
2022-11-06T00:03:07.206Z,4.67
2022-11-06T00:06:51.521Z,4.70
2022-11-06T00:10:16.950Z,4.68
2022-11-06T00:13:45.073Z,4.65
2022-11-06T00:17:13.352Z,4.66
2022-11-06T00:20:41.082Z,4.65
2022-11-06T00:24:10.394Z,4.62
2022-11-06T00:27:39.654Z,4.58
2022-11-06T00:31:09.928Z,4.50
2022-11-06T00:34:38.047Z,4.43
2022-11-06T00:38:04.545Z,4.36
2022-11-06T00:41:31.834Z,4.29
2022-11-06T00:44:58.688Z,4.21
2022-11-06T00:48:25.655Z,4.16
2022-11-06T00:51:52.928Z,4.11
2022-11-06T00:55:19.509Z,4.09
2022-11-06T00:58:47.153Z,4.09
2022-11-06T01:02:19.813Z,4.09
2022-11-06T01:05:47.035Z,4.10
2022-11-06T01:09:15.845Z,4.13
2022-11-06T01:12:42.721Z,4.18
2022-11-06T01:16:12.698Z,4.24
2022-11-06T01:19:39.714Z,4.27
2022-11-06T01:23:06.398Z,4.25
2022-11-06T01:26:38.540Z,4.19
2022-11-06T01:30:08.321Z,4.15
2022-11-06T01:33:35.167Z,4.10
2022-11-06T01:37:04.459Z,4.04
2022-11-06T01:40:31.948Z,3.95
2022-11-06T01:44:01.695Z,3.89
2022-11-06T01:47:31.174Z,3.82
2022-11-06T01:50:59.638Z,3.74
2022-11-06T01:54:29.694Z,3.68
2022-11-06T01:57:59.632Z,3.63
2022-11-06T02:01:26.723Z,3.60
2022-11-06T02:04:53.963Z,3.60
2022-11-06T02:08:23.220Z,3.62
2022-11-06T02:11:53.046Z,3.60
2022-11-06T02:15:28.772Z,3.64
2022-11-06T02:19:14.625Z,3.68
2022-11-06T02:23:10.222Z,3.70
2022-11-06T02:27:07.354Z,3.72
2022-11-06T02:30:40.397Z,3.71
2022-11-06T02:34:13.605Z,3.70
2022-11-06T02:37:43.727Z,3.66
2022-11-06T02:41:14.153Z,3.62
2022-11-06T02:44:42.039Z,3.55
2022-11-06T02:48:11.884Z,3.51
2022-11-06T02:51:43.473Z,3.48
2022-11-06T02:55:15.847Z,3.44
2022-11-06T02:58:49.157Z,3.42
2022-11-06T03:02:20.492Z,3.41
2022-11-06T03:05:53.956Z,3.42
2022-11-06T03:09:26.084Z,3.43
2022-11-06T03:13:00.812Z,3.47
2022-11-06T03:16:44.680Z,3.53
2022-11-06T03:20:26.570Z,3.60
2022-11-06T03:23:57.509Z,3.69
2022-11-06T03:27:30.102Z,3.78
2022-11-06T03:31:00.936Z,3.86
2022-11-06T03:34:37.985Z,3.94
2022-11-06T03:38:09.755Z,3.98
2022-11-06T03:41:44.053Z,3.99
2022-11-06T03:45:15.215Z,3.96
2022-11-06T03:48:46.565Z,3.93
2022-11-06T03:52:17.867Z,3.89
2022-11-06T03:55:51.474Z,3.84
2022-11-06T03:59:23.644Z,3.79
2022-11-06T04:03:05.231Z,3.73
2022-11-06T04:06:37.725Z,3.67
2022-11-06T04:10:24.691Z,3.63
2022-11-06T04:14:01.225Z,3.60
2022-11-06T04:17:31.049Z,3.57
2022-11-06T04:21:26.304Z,3.56
2022-11-06T04:25:24.390Z,3.57
2022-11-06T04:29:03.479Z,3.62
2022-11-06T04:32:39.133Z,3.68
2022-11-06T04:36:17.936Z,3.76
2022-11-06T04:39:57.874Z,3.84
2022-11-06T04:43:35.729Z,3.89
2022-11-06T04:47:07.126Z,3.95
2022-11-06T04:50:38.335Z,3.99
2022-11-06T04:54:05.875Z,4.00
2022-11-06T04:57:33.145Z,3.99
2022-11-06T05:01:00.533Z,3.95
2022-11-06T05:04:27.632Z,3.92
2022-11-06T05:07:54.462Z,3.85
2022-11-06T05:11:21.147Z,3.77
2022-11-06T05:14:48.020Z,3.70
2022-11-06T05:18:15.351Z,3.63
2022-11-06T05:22:00.146Z,3.56
2022-11-06T05:25:27.061Z,3.50
2022-11-06T05:28:53.772Z,3.47
2022-11-06T05:32:20.519Z,3.45
2022-11-06T05:35:47.073Z,3.44
2022-11-06T05:39:14.360Z,3.46
2022-11-06T05:42:42.227Z,3.49
2022-11-06T05:46:29.663Z,3.52
2022-11-06T05:49:56.679Z,3.55
2022-11-06T05:53:23.920Z,3.60
2022-11-06T05:56:50.690Z,3.64
2022-11-06T06:00:18.581Z,3.65
2022-11-06T06:03:45.305Z,3.63
2022-11-06T06:07:12.422Z,3.61
2022-11-06T06:10:41.889Z,3.59
2022-11-06T06:14:08.829Z,3.55
2022-11-06T06:17:37.183Z,3.52
2022-11-06T06:21:04.164Z,3.48
2022-11-06T06:24:31.224Z,3.44
2022-11-06T06:27:59.098Z,3.42
2022-11-06T06:31:27.081Z,3.41
2022-11-06T06:34:55.341Z,3.40
2022-11-06T06:38:26.139Z,3.42
2022-11-06T06:41:52.867Z,3.45
2022-11-06T06:45:20.090Z,3.51
2022-11-06T06:48:47.099Z,3.61
2022-11-06T06:52:14.874Z,3.72
2022-11-06T06:55:42.342Z,3.84
2022-11-06T06:59:09.657Z,3.97
2022-11-06T07:02:36.764Z,4.10
2022-11-06T07:06:06.017Z,4.20
2022-11-06T07:09:34.793Z,4.26
2022-11-06T07:13:03.859Z,4.32
2022-11-06T07:16:32.851Z,4.36
2022-11-06T07:19:59.827Z,4.36
2022-11-06T07:23:29.226Z,4.39
2022-11-06T07:26:56.114Z,4.43
2022-11-06T07:30:23.334Z,4.46
2022-11-06T07:33:50.488Z,4.50
2022-11-06T07:37:17.568Z,4.52
2022-11-06T07:40:45.258Z,4.57
2022-11-06T07:44:13.077Z,4.62
2022-11-06T07:47:42.902Z,4.67
2022-11-06T07:51:12.683Z,4.76
2022-11-06T07:54:39.409Z,4.84
2022-11-06T07:58:06.460Z,4.94
2022-11-06T08:01:33.763Z,5.04
2022-11-06T08:05:01.107Z,5.14
2022-11-06T08:08:29.006Z,5.23
2022-11-06T08:11:55.756Z,5.28
2022-11-06T08:15:23.028Z,5.40
2022-11-06T08:18:49.800Z,5.49
2022-11-06T08:22:16.908Z,5.60
2022-11-06T08:25:44.185Z,5.71
2022-11-06T08:29:11.030Z,5.78
2022-11-06T08:32:38.170Z,5.84
2022-11-06T08:36:06.335Z,5.89
2022-11-06T08:39:33.362Z,5.92
2022-11-06T08:43:04.156Z,5.96
2022-11-06T08:46:31.409Z,6.00
2022-11-06T08:49:58.717Z,6.05
2022-11-06T08:53:25.603Z,6.10
2022-11-06T08:56:52.518Z,6.16
2022-11-06T09:00:23.260Z,6.25
2022-11-06T09:03:50.225Z,6.35
2022-11-06T09:07:17.622Z,6.46
2022-11-06T09:10:45.077Z,6.57
2022-11-06T09:14:12.043Z,6.69
2022-11-06T09:17:45.550Z,6.83
2022-11-06T09:21:12.967Z,6.97
2022-11-06T09:25:01.860Z,7.13
2022-11-06T09:28:26.421Z,7.32
2022-11-06T09:31:54.656Z,7.47
2022-11-06T09:35:22.823Z,7.63
2022-11-06T09:38:53.724Z,7.80
2022-11-06T09:42:32.537Z,7.93
2022-11-06T09:46:15.030Z,8.09
2022-11-06T09:49:50.205Z,8.26
2022-11-06T09:53:21.888Z,8.44
2022-11-06T09:56:57.139Z,8.58
2022-11-06T10:00:24.661Z,8.69
2022-11-06T10:03:56.522Z,8.80
2022-11-06T10:07:29.184Z,8.91
2022-11-06T10:11:05.619Z,9.00
2022-11-06T10:14:45.511Z,9.07
2022-11-06T10:18:21.019Z,9.17
2022-11-06T10:21:57.892Z,9.26
2022-11-06T10:25:32.543Z,9.38
2022-11-06T10:29:20.074Z,9.53
2022-11-06T10:33:05.500Z,9.67
2022-11-06T10:36:38.251Z,9.83
2022-11-06T10:40:08.628Z,9.93
2022-11-06T10:43:42.777Z,10.03
2022-11-06T10:47:19.796Z,10.13
2022-11-06T10:51:00.950Z,10.26
2022-11-06T10:54:46.594Z,10.36
2022-11-06T10:58:16.985Z,10.49
2022-11-06T11:01:47.784Z,10.53
2022-11-06T11:05:18.110Z,10.64
2022-11-06T11:08:47.042Z,10.71
2022-11-06T11:12:27.055Z,10.83
2022-11-06T11:15:55.350Z,10.88
2022-11-06T11:19:35.451Z,10.96
2022-11-06T11:23:18.061Z,11.02
2022-11-06T11:26:48.594Z,11.08
2022-11-06T11:30:26.622Z,11.15
2022-11-06T11:33:56.771Z,11.22
2022-11-06T11:37:29.663Z,11.37
2022-11-06T11:41:09.654Z,11.48
2022-11-06T11:44:37.800Z,11.55
2022-11-06T11:48:16.607Z,11.66
2022-11-06T11:51:46.315Z,11.79
2022-11-06T11:55:21.266Z,11.85
2022-11-06T11:58:56.670Z,11.92
2022-11-06T12:02:29.875Z,12.02
2022-11-06T12:06:05.249Z,12.14
2022-11-06T12:09:46.615Z,12.25
2022-11-06T12:13:23.076Z,12.38
2022-11-06T12:16:54.360Z,12.50
2022-11-06T12:20:26.237Z,12.60
2022-11-06T12:23:59.996Z,12.75
2022-11-06T12:27:30.134Z,12.87
2022-11-06T12:31:05.835Z,13.00
2022-11-06T12:34:39.940Z,13.10
2022-11-06T12:38:20.622Z,13.20
2022-11-06T12:41:52.238Z,13.27
2022-11-06T12:45:20.200Z,13.30
2022-11-06T12:49:16.983Z,13.28
2022-11-06T12:53:02.060Z,13.25
2022-11-06T12:56:44.541Z,13.17
2022-11-06T13:00:16.924Z,13.06
2022-11-06T13:04:10.470Z,12.98
2022-11-06T13:08:03.009Z,12.81
2022-11-06T13:11:40.369Z,12.68
2022-11-06T13:15:20.357Z,12.60
2022-11-06T13:18:53.536Z,12.54
2022-11-06T13:22:25.852Z,12.51
2022-11-06T13:25:59.422Z,12.51
2022-11-06T13:29:28.297Z,12.57
2022-11-06T13:33:04.979Z,12.62
2022-11-06T13:36:37.002Z,12.68
2022-11-06T13:40:07.175Z,12.71
2022-11-06T13:43:39.255Z,12.74
2022-11-06T13:47:15.780Z,12.68
2022-11-06T13:50:51.805Z,12.60
2022-11-06T13:54:42.538Z,12.49
2022-11-06T13:58:32.901Z,12.34
2022-11-06T14:02:13.662Z,12.22
2022-11-06T14:05:58.068Z,12.11
2022-11-06T14:09:28.134Z,11.99
2022-11-06T14:12:55.544Z,11.87
2022-11-06T14:16:34.320Z,11.76
2022-11-06T14:20:09.064Z,11.64
2022-11-06T14:23:57.367Z,11.50
2022-11-06T14:27:58.752Z,11.38
2022-11-06T14:31:56.389Z,11.28
2022-11-06T14:35:52.331Z,11.18
2022-11-06T14:39:39.995Z,11.09
2022-11-06T14:43:19.550Z,11.00
2022-11-06T14:46:53.102Z,10.93
2022-11-06T14:50:29.636Z,10.84
2022-11-06T14:53:59.256Z,10.75
2022-11-06T14:57:43.530Z,10.71
2022-11-06T15:01:25.518Z,10.63
2022-11-06T15:05:00.253Z,10.55
2022-11-06T15:08:55.665Z,10.46
2022-11-06T15:12:42.191Z,10.38
2022-11-06T15:16:14.601Z,10.28
2022-11-06T15:19:47.704Z,10.13
2022-11-06T15:23:24.999Z,10.06
2022-11-06T15:26:55.757Z,9.97
2022-11-06T15:30:23.484Z,9.88
2022-11-06T15:33:58.155Z,9.79
2022-11-06T15:37:31.389Z,9.71
2022-11-06T15:40:58.292Z,9.64
2022-11-06T15:44:26.841Z,9.58
2022-11-06T15:48:02.443Z,9.55
2022-11-06T15:51:30.833Z,9.53
2022-11-06T15:54:59.897Z,9.52
2022-11-06T15:58:33.833Z,9.52
2022-11-06T16:02:05.891Z,9.49
2022-11-06T16:05:36.416Z,9.45
2022-11-06T16:09:04.218Z,9.38
2022-11-06T16:12:31.688Z,9.30
2022-11-06T16:16:01.601Z,9.22
2022-11-06T16:19:34.394Z,9.15
2022-11-06T16:23:06.692Z,9.06
2022-11-06T16:26:44.471Z,9.01
2022-11-06T16:30:25.686Z,8.94
2022-11-06T16:34:00.908Z,8.86
2022-11-06T16:37:41.156Z,8.81
2022-11-06T16:41:09.465Z,8.76
2022-11-06T16:44:49.539Z,8.73
2022-11-06T16:48:35.930Z,8.71
2022-11-06T16:52:03.396Z,8.71
2022-11-06T16:55:34.700Z,8.70
2022-11-06T16:59:08.057Z,8.68
2022-11-06T17:02:40.569Z,8.67
2022-11-06T17:06:08.809Z,8.66
2022-11-06T17:09:37.717Z,8.63
2022-11-06T17:13:15.454Z,8.58
2022-11-06T17:16:51.777Z,8.56
2022-11-06T17:20:21.813Z,8.53
2022-11-06T17:23:51.325Z,8.46
2022-11-06T17:27:22.086Z,8.37
2022-11-06T17:30:52.905Z,8.25
2022-11-06T17:34:21.709Z,8.15
2022-11-06T17:37:49.727Z,8.08
2022-11-06T17:41:30.255Z,8.00
2022-11-06T17:45:04.384Z,7.94
2022-11-06T17:48:34.340Z,7.90
2022-11-06T17:52:07.296Z,7.87
2022-11-06T17:55:34.775Z,7.86
2022-11-06T17:59:01.446Z,7.86
2022-11-06T18:02:54.986Z,7.85
2022-11-06T18:06:17.656Z,7.85
2022-11-06T18:09:44.694Z,7.84
2022-11-06T18:13:11.457Z,7.81
2022-11-06T18:16:44.132Z,7.77
2022-11-06T18:20:14.116Z,7.73
2022-11-06T18:23:41.861Z,7.71
2022-11-06T18:27:09.451Z,7.63
2022-11-06T18:30:41.357Z,7.57
2022-11-06T18:34:12.950Z,7.52
2022-11-06T18:37:47.180Z,7.46
2022-11-06T18:41:16.399Z,7.38
2022-11-06T18:44:46.735Z,7.35
2022-11-06T18:48:17.155Z,7.30
2022-11-06T18:51:47.994Z,7.28
2022-11-06T18:55:17.421Z,7.30
2022-11-06T18:58:45.724Z,7.28
2022-11-06T19:02:15.182Z,7.29
2022-11-06T19:05:57.517Z,7.32
2022-11-06T19:09:25.423Z,7.36
2022-11-06T19:12:52.609Z,7.39
2022-11-06T19:16:20.607Z,7.44
2022-11-06T19:19:50.549Z,7.45
2022-11-06T19:23:24.876Z,7.44
2022-11-06T19:26:53.147Z,7.41
2022-11-06T19:30:23.545Z,7.37
2022-11-06T19:33:54.003Z,7.29
2022-11-06T19:37:24.465Z,7.22
2022-11-06T19:41:04.235Z,7.15
2022-11-06T19:44:31.627Z,7.09
2022-11-06T19:48:02.209Z,7.03
2022-11-06T19:51:34.200Z,7.02
2022-11-06T19:55:24.928Z,6.98
2022-11-06T19:58:55.404Z,6.97
2022-11-06T20:02:42.225Z,6.96
2022-11-06T20:06:15.431Z,6.96
2022-11-06T20:09:44.657Z,7.00
2022-11-06T20:13:16.974Z,7.05
2022-11-06T20:16:45.740Z,7.11
2022-11-06T20:20:16.049Z,7.15
2022-11-06T20:23:45.027Z,7.17
2022-11-06T20:27:13.325Z,7.18
2022-11-06T20:30:45.283Z,7.17
2022-11-06T20:34:12.950Z,7.12
2022-11-06T20:37:40.328Z,7.08
2022-11-06T20:41:07.007Z,7.00
2022-11-06T20:44:36.734Z,6.92
2022-11-06T20:48:11.023Z,6.83
2022-11-06T20:52:07.385Z,6.76
2022-11-06T20:55:31.959Z,6.66
2022-11-06T20:59:03.280Z,6.61
2022-11-06T21:02:36.377Z,6.58
2022-11-06T21:06:03.759Z,6.58
2022-11-06T21:09:33.394Z,6.60
2022-11-06T21:13:04.522Z,6.61
2022-11-06T21:16:42.577Z,6.64
2022-11-06T21:20:16.983Z,6.66
2022-11-06T21:23:51.821Z,6.67
2022-11-06T21:27:20.856Z,6.71
2022-11-06T21:30:51.982Z,6.73
2022-11-06T21:34:21.072Z,6.71
2022-11-06T21:37:55.088Z,6.66
2022-11-06T21:41:27.655Z,6.59
2022-11-06T21:44:58.755Z,6.52
2022-11-06T21:48:45.360Z,6.43
2022-11-06T21:52:33.667Z,6.34
2022-11-06T21:56:08.139Z,6.28
2022-11-06T21:59:38.991Z,6.25
2022-11-06T22:03:06.497Z,6.22
2022-11-06T22:06:33.615Z,6.19
2022-11-06T22:10:00.607Z,6.22
2022-11-06T22:13:27.561Z,6.21
2022-11-06T22:16:55.439Z,6.18
2022-11-06T22:20:23.919Z,6.30
2022-11-06T22:23:51.084Z,6.35
2022-11-06T22:27:21.581Z,6.40
2022-11-06T22:30:48.331Z,6.42
2022-11-06T22:34:15.826Z,6.44
2022-11-06T22:38:10.473Z,6.43
2022-11-06T22:41:37.549Z,6.40
2022-11-06T22:45:06.403Z,6.34
2022-11-06T22:48:34.895Z,6.23
2022-11-06T22:52:01.626Z,6.15
2022-11-06T22:55:28.428Z,6.09
2022-11-06T22:58:58.356Z,6.03
2022-11-06T23:02:25.558Z,6.00
2022-11-06T23:05:52.725Z,5.97
2022-11-06T23:09:19.865Z,5.96
2022-11-06T23:12:49.444Z,5.95
2022-11-06T23:16:43.317Z,5.95
2022-11-06T23:20:12.020Z,5.96
2022-11-06T23:23:39.081Z,6.01
2022-11-06T23:27:06.765Z,6.07
2022-11-06T23:30:34.107Z,6.12
2022-11-06T23:34:01.317Z,6.14
2022-11-06T23:37:28.987Z,6.13
2022-11-06T23:41:19.580Z,6.15
2022-11-06T23:45:05.577Z,6.15
2022-11-06T23:48:32.937Z,6.10
2022-11-06T23:52:08.953Z,6.07
2022-11-06T23:55:37.545Z,6.02
2022-11-06T23:59:06.631Z,5.97
